sensor_id;sensor_type;location;lat;lon;timestamp;P1;durP1;ratioP1;P2;durP2;ratioP2
793;SDS011;380;48.738;9.214;2023-02-23T00:01:14;18.33;;;13.13;;
793;SDS011;380;48.738;9.214;2023-02-23T00:03:40;15.30;;;11.00;;
793;SDS011;380;48.738;9.214;2023-02-23T00:06:07;18.88;;;12.65;;
793;SDS011;380;48.738;9.214;2023-02-23T00:08:34;17.17;;;12.30;;
793;SDS011;380;48.738;9.214;2023-02-23T00:11:02;16.00;;;10.93;;
793;SDS011;380;48.738;9.214;2023-02-23T00:13:29;15.90;;;12.25;;
793;SDS011;380;48.738;9.214;2023-02-23T00:15:55;17.52;;;12.48;;
793;SDS011;380;48.738;9.214;2023-02-23T00:18:21;18.23;;;12.10;;
793;SDS011;380;48.738;9.214;2023-02-23T00:20:54;17.02;;;11.30;;
793;SDS011;380;48.738;9.214;2023-02-23T00:23:21;16.67;;;10.35;;
793;SDS011;380;48.738;9.214;2023-02-23T00:25:47;15.13;;;10.27;;
793;SDS011;380;48.738;9.214;2023-02-23T00:28:13;17.67;;;11.95;;
793;SDS011;380;48.738;9.214;2023-02-23T00:30:40;18.45;;;11.80;;
793;SDS011;380;48.738;9.214;2023-02-23T00:33:06;16.35;;;12.05;;
793;SDS011;380;48.738;9.214;2023-02-23T00:35:32;16.83;;;12.98;;
793;SDS011;380;48.738;9.214;2023-02-23T00:37:58;18.15;;;13.38;;
793;SDS011;380;48.738;9.214;2023-02-23T00:40:24;17.02;;;11.02;;
793;SDS011;380;48.738;9.214;2023-02-23T00:42:50;14.00;;;11.25;;
793;SDS011;380;48.738;9.214;2023-02-23T00:45:16;14.90;;;11.70;;
793;SDS011;380;48.738;9.214;2023-02-23T00:47:44;17.05;;;12.02;;
793;SDS011;380;48.738;9.214;2023-02-23T00:50:13;15.82;;;12.23;;
793;SDS011;380;48.738;9.214;2023-02-23T00:52:40;21.33;;;13.93;;
793;SDS011;380;48.738;9.214;2023-02-23T00:55:07;15.10;;;11.90;;
793;SDS011;380;48.738;9.214;2023-02-23T00:57:33;12.63;;;11.32;;
793;SDS011;380;48.738;9.214;2023-02-23T00:59:59;18.73;;;12.02;;
793;SDS011;380;48.738;9.214;2023-02-23T01:02:26;19.20;;;13.15;;
793;SDS011;380;48.738;9.214;2023-02-23T01:04:54;14.70;;;12.43;;
793;SDS011;380;48.738;9.214;2023-02-23T01:07:20;14.65;;;12.30;;
793;SDS011;380;48.738;9.214;2023-02-23T01:09:49;17.05;;;11.50;;
793;SDS011;380;48.738;9.214;2023-02-23T01:12:15;14.45;;;12.23;;
793;SDS011;380;48.738;9.214;2023-02-23T01:14:41;15.50;;;12.63;;
793;SDS011;380;48.738;9.214;2023-02-23T01:17:07;18.20;;;13.45;;
793;SDS011;380;48.738;9.214;2023-02-23T01:19:33;17.55;;;11.35;;
793;SDS011;380;48.738;9.214;2023-02-23T01:21:59;13.68;;;11.52;;
793;SDS011;380;48.738;9.214;2023-02-23T01:24:26;16.50;;;12.95;;
793;SDS011;380;48.738;9.214;2023-02-23T01:26:53;13.63;;;11.40;;
793;SDS011;380;48.738;9.214;2023-02-23T01:29:19;18.92;;;13.00;;
793;SDS011;380;48.738;9.214;2023-02-23T01:31:46;18.77;;;12.85;;
793;SDS011;380;48.738;9.214;2023-02-23T01:34:12;17.33;;;11.95;;
793;SDS011;380;48.738;9.214;2023-02-23T01:36:39;17.40;;;12.82;;
793;SDS011;380;48.738;9.214;2023-02-23T01:39:06;17.25;;;11.30;;
793;SDS011;380;48.738;9.214;2023-02-23T01:41:35;17.33;;;12.25;;
793;SDS011;380;48.738;9.214;2023-02-23T01:44:05;20.80;;;13.38;;
793;SDS011;380;48.738;9.214;2023-02-23T01:46:35;16.52;;;11.95;;
793;SDS011;380;48.738;9.214;2023-02-23T01:49:03;14.23;;;12.63;;
793;SDS011;380;48.738;9.214;2023-02-23T01:51:32;23.15;;;12.73;;
793;SDS011;380;48.738;9.214;2023-02-23T01:53:59;16.08;;;11.75;;
793;SDS011;380;48.738;9.214;2023-02-23T01:56:28;18.58;;;12.65;;
793;SDS011;380;48.738;9.214;2023-02-23T01:58:56;16.92;;;12.90;;
793;SDS011;380;48.738;9.214;2023-02-23T02:01:24;21.13;;;14.13;;
793;SDS011;380;48.738;9.214;2023-02-23T02:03:59;18.77;;;12.48;;
793;SDS011;380;48.738;9.214;2023-02-23T02:06:26;16.60;;;12.95;;
793;SDS011;380;48.738;9.214;2023-02-23T02:08:53;19.80;;;13.07;;
793;SDS011;380;48.738;9.214;2023-02-23T02:11:22;16.90;;;13.23;;
793;SDS011;380;48.738;9.214;2023-02-23T02:21:45;18.83;;;11.30;;
793;SDS011;380;48.738;9.214;2023-02-23T02:32:18;19.27;;;12.85;;
793;SDS011;380;48.738;9.214;2023-02-23T02:40:21;17.17;;;12.38;;
793;SDS011;380;48.738;9.214;2023-02-23T02:50:57;14.95;;;10.55;;
793;SDS011;380;48.738;9.214;2023-02-23T02:55:51;19.98;;;10.63;;
793;SDS011;380;48.738;9.214;2023-02-23T02:58:20;15.60;;;10.50;;
793;SDS011;380;48.738;9.214;2023-02-23T03:00:49;15.93;;;10.27;;
793;SDS011;380;48.738;9.214;2023-02-23T03:03:41;18.40;;;13.52;;
793;SDS011;380;48.738;9.214;2023-02-23T03:06:31;15.85;;;11.32;;
793;SDS011;380;48.738;9.214;2023-02-23T03:14:51;13.63;;;10.75;;
793;SDS011;380;48.738;9.214;2023-02-23T03:17:44;15.10;;;11.30;;
793;SDS011;380;48.738;9.214;2023-02-23T03:23:21;18.05;;;12.75;;
793;SDS011;380;48.738;9.214;2023-02-23T03:26:14;16.77;;;11.35;;
793;SDS011;380;48.738;9.214;2023-02-23T03:35:04;14.75;;;10.77;;
793;SDS011;380;48.738;9.214;2023-02-23T03:37:59;17.08;;;11.57;;
793;SDS011;380;48.738;9.214;2023-02-23T03:40:45;14.00;;;10.30;;
793;SDS011;380;48.738;9.214;2023-02-23T03:43:32;16.80;;;10.57;;
793;SDS011;380;48.738;9.214;2023-02-23T03:46:18;13.85;;;10.65;;
793;SDS011;380;48.738;9.214;2023-02-23T03:49:04;13.60;;;10.27;;
793;SDS011;380;48.738;9.214;2023-02-23T03:51:52;12.52;;;8.65;;
793;SDS011;380;48.738;9.214;2023-02-23T03:54:40;15.35;;;12.07;;
793;SDS011;380;48.738;9.214;2023-02-23T03:57:27;16.52;;;10.80;;
793;SDS011;380;48.738;9.214;2023-02-23T04:00:15;18.27;;;11.55;;
793;SDS011;380;48.738;9.214;2023-02-23T04:03:01;15.57;;;11.20;;
793;SDS011;380;48.738;9.214;2023-02-23T04:05:48;15.10;;;11.02;;
793;SDS011;380;48.738;9.214;2023-02-23T04:08:35;12.18;;;9.57;;
793;SDS011;380;48.738;9.214;2023-02-23T04:11:27;11.50;;;8.43;;
793;SDS011;380;48.738;9.214;2023-02-23T04:14:18;13.50;;;8.45;;
793;SDS011;380;48.738;9.214;2023-02-23T04:16:47;15.45;;;10.75;;
793;SDS011;380;48.738;9.214;2023-02-23T04:19:13;16.10;;;11.60;;
793;SDS011;380;48.738;9.214;2023-02-23T04:21:39;13.18;;;9.80;;
793;SDS011;380;48.738;9.214;2023-02-23T04:24:05;16.55;;;9.55;;
793;SDS011;380;48.738;9.214;2023-02-23T04:26:31;12.10;;;8.95;;
793;SDS011;380;48.738;9.214;2023-02-23T04:28:57;11.30;;;8.90;;
793;SDS011;380;48.738;9.214;2023-02-23T04:31:23;12.90;;;9.77;;
793;SDS011;380;48.738;9.214;2023-02-23T04:33:49;13.05;;;9.27;;
793;SDS011;380;48.738;9.214;2023-02-23T04:36:15;9.65;;;8.65;;
793;SDS011;380;48.738;9.214;2023-02-23T04:38:41;14.57;;;9.82;;
793;SDS011;380;48.738;9.214;2023-02-23T04:41:07;16.95;;;11.73;;
793;SDS011;380;48.738;9.214;2023-02-23T04:43:33;11.32;;;9.40;;
793;SDS011;380;48.738;9.214;2023-02-23T04:45:59;13.80;;;11.35;;
793;SDS011;380;48.738;9.214;2023-02-23T04:48:26;12.57;;;9.77;;
793;SDS011;380;48.738;9.214;2023-02-23T04:50:52;13.80;;;9.60;;
793;SDS011;380;48.738;9.214;2023-02-23T04:53:19;13.27;;;9.32;;
793;SDS011;380;48.738;9.214;2023-02-23T04:55:45;13.50;;;10.75;;
793;SDS011;380;48.738;9.214;2023-02-23T04:58:11;12.10;;;10.07;;
793;SDS011;380;48.738;9.214;2023-02-23T05:00:40;13.07;;;9.68;;
793;SDS011;380;48.738;9.214;2023-02-23T05:03:06;12.45;;;10.10;;
793;SDS011;380;48.738;9.214;2023-02-23T05:05:32;15.05;;;10.18;;
793;SDS011;380;48.738;9.214;2023-02-23T05:07:58;11.30;;;9.73;;
793;SDS011;380;48.738;9.214;2023-02-23T05:10:24;12.15;;;9.88;;
793;SDS011;380;48.738;9.214;2023-02-23T05:12:50;10.90;;;9.07;;
793;SDS011;380;48.738;9.214;2023-02-23T05:15:17;13.98;;;9.75;;
793;SDS011;380;48.738;9.214;2023-02-23T05:17:43;13.90;;;9.38;;
793;SDS011;380;48.738;9.214;2023-02-23T05:20:09;13.98;;;9.80;;
793;SDS011;380;48.738;9.214;2023-02-23T05:22:36;17.65;;;10.00;;
793;SDS011;380;48.738;9.214;2023-02-23T05:25:02;10.45;;;8.75;;
793;SDS011;380;48.738;9.214;2023-02-23T05:27:28;12.63;;;9.77;;
793;SDS011;380;48.738;9.214;2023-02-23T05:29:55;15.77;;;10.27;;
793;SDS011;380;48.738;9.214;2023-02-23T05:32:21;12.15;;;9.90;;
793;SDS011;380;48.738;9.214;2023-02-23T05:34:47;11.63;;;9.65;;
793;SDS011;380;48.738;9.214;2023-02-23T05:37:13;10.85;;;8.88;;
793;SDS011;380;48.738;9.214;2023-02-23T05:39:39;9.57;;;8.55;;
793;SDS011;380;48.738;9.214;2023-02-23T05:42:05;9.63;;;8.05;;
793;SDS011;380;48.738;9.214;2023-02-23T05:44:31;14.93;;;9.80;;
793;SDS011;380;48.738;9.214;2023-02-23T05:46:57;11.60;;;8.23;;
793;SDS011;380;48.738;9.214;2023-02-23T05:49:23;14.02;;;7.95;;
793;SDS011;380;48.738;9.214;2023-02-23T05:51:49;10.57;;;8.95;;
793;SDS011;380;48.738;9.214;2023-02-23T05:54:15;10.85;;;8.70;;
793;SDS011;380;48.738;9.214;2023-02-23T05:56:41;8.63;;;7.72;;
793;SDS011;380;48.738;9.214;2023-02-23T05:59:07;12.38;;;8.23;;
793;SDS011;380;48.738;9.214;2023-02-23T06:01:33;13.23;;;8.82;;
793;SDS011;380;48.738;9.214;2023-02-23T06:03:59;9.77;;;7.20;;
793;SDS011;380;48.738;9.214;2023-02-23T06:06:25;13.50;;;9.15;;
793;SDS011;380;48.738;9.214;2023-02-23T06:08:52;11.68;;;8.25;;
793;SDS011;380;48.738;9.214;2023-02-23T06:11:18;9.88;;;8.30;;
793;SDS011;380;48.738;9.214;2023-02-23T06:13:44;12.07;;;7.97;;
793;SDS011;380;48.738;9.214;2023-02-23T06:16:10;10.45;;;8.02;;
793;SDS011;380;48.738;9.214;2023-02-23T06:18:36;10.38;;;7.57;;
793;SDS011;380;48.738;9.214;2023-02-23T06:21:02;14.48;;;8.57;;
793;SDS011;380;48.738;9.214;2023-02-23T06:23:28;14.55;;;9.15;;
793;SDS011;380;48.738;9.214;2023-02-23T06:25:54;11.68;;;8.23;;
793;SDS011;380;48.738;9.214;2023-02-23T06:28:20;9.32;;;7.57;;
793;SDS011;380;48.738;9.214;2023-02-23T06:30:47;10.77;;;8.65;;
793;SDS011;380;48.738;9.214;2023-02-23T06:33:16;11.68;;;8.35;;
793;SDS011;380;48.738;9.214;2023-02-23T06:35:41;10.73;;;7.25;;
793;SDS011;380;48.738;9.214;2023-02-23T06:38:08;9.38;;;7.80;;
793;SDS011;380;48.738;9.214;2023-02-23T06:40:34;8.07;;;7.22;;
793;SDS011;380;48.738;9.214;2023-02-23T06:43:00;11.07;;;8.50;;
793;SDS011;380;48.738;9.214;2023-02-23T06:45:27;10.05;;;7.97;;
793;SDS011;380;48.738;9.214;2023-02-23T06:47:53;9.32;;;6.90;;
793;SDS011;380;48.738;9.214;2023-02-23T06:50:19;12.98;;;10.32;;
793;SDS011;380;48.738;9.214;2023-02-23T06:52:45;10.82;;;8.25;;
793;SDS011;380;48.738;9.214;2023-02-23T06:55:12;14.40;;;8.35;;
793;SDS011;380;48.738;9.214;2023-02-23T06:57:39;11.25;;;7.63;;
793;SDS011;380;48.738;9.214;2023-02-23T07:00:05;10.05;;;7.45;;
793;SDS011;380;48.738;9.214;2023-02-23T07:02:32;13.02;;;8.82;;
793;SDS011;380;48.738;9.214;2023-02-23T07:05:00;10.55;;;8.00;;
793;SDS011;380;48.738;9.214;2023-02-23T07:07:26;8.75;;;7.00;;
793;SDS011;380;48.738;9.214;2023-02-23T07:09:52;9.43;;;6.95;;
793;SDS011;380;48.738;9.214;2023-02-23T07:12:18;9.45;;;6.97;;
793;SDS011;380;48.738;9.214;2023-02-23T07:14:45;8.32;;;6.78;;
793;SDS011;380;48.738;9.214;2023-02-23T07:17:11;10.30;;;6.75;;
793;SDS011;380;48.738;9.214;2023-02-23T07:19:37;24.25;;;22.02;;
793;SDS011;380;48.738;9.214;2023-02-23T07:22:03;12.98;;;8.65;;
793;SDS011;380;48.738;9.214;2023-02-23T07:24:29;11.27;;;8.15;;
793;SDS011;380;48.738;9.214;2023-02-23T07:26:55;18.40;;;8.00;;
793;SDS011;380;48.738;9.214;2023-02-23T07:29:21;28.75;;;9.73;;
793;SDS011;380;48.738;9.214;2023-02-23T07:31:52;13.00;;;8.02;;
793;SDS011;380;48.738;9.214;2023-02-23T07:34:18;20.08;;;7.63;;
793;SDS011;380;48.738;9.214;2023-02-23T07:36:44;11.00;;;6.72;;
793;SDS011;380;48.738;9.214;2023-02-23T07:39:09;12.90;;;7.32;;
793;SDS011;380;48.738;9.214;2023-02-23T07:41:36;12.93;;;7.95;;
793;SDS011;380;48.738;9.214;2023-02-23T07:44:02;13.50;;;8.57;;
793;SDS011;380;48.738;9.214;2023-02-23T07:46:28;11.27;;;8.05;;
793;SDS011;380;48.738;9.214;2023-02-23T07:48:54;11.35;;;8.55;;
793;SDS011;380;48.738;9.214;2023-02-23T07:51:20;9.68;;;7.35;;
793;SDS011;380;48.738;9.214;2023-02-23T07:53:46;30.35;;;10.07;;
793;SDS011;380;48.738;9.214;2023-02-23T07:56:13;9.93;;;7.45;;
793;SDS011;380;48.738;9.214;2023-02-23T07:58:39;14.23;;;8.43;;
793;SDS011;380;48.738;9.214;2023-02-23T08:01:06;13.90;;;8.45;;
793;SDS011;380;48.738;9.214;2023-02-23T08:03:32;10.15;;;7.93;;
793;SDS011;380;48.738;9.214;2023-02-23T08:05:58;10.18;;;6.95;;
793;SDS011;380;48.738;9.214;2023-02-23T08:08:24;7.97;;;6.25;;
793;SDS011;380;48.738;9.214;2023-02-23T08:10:50;9.88;;;7.07;;
793;SDS011;380;48.738;9.214;2023-02-23T08:13:16;11.65;;;8.63;;
793;SDS011;380;48.738;9.214;2023-02-23T08:15:42;8.88;;;6.55;;
793;SDS011;380;48.738;9.214;2023-02-23T08:18:08;13.93;;;6.85;;
793;SDS011;380;48.738;9.214;2023-02-23T08:20:35;8.20;;;6.82;;
793;SDS011;380;48.738;9.214;2023-02-23T08:23:01;10.05;;;6.55;;
793;SDS011;380;48.738;9.214;2023-02-23T08:25:27;11.25;;;6.50;;
793;SDS011;380;48.738;9.214;2023-02-23T08:27:53;13.27;;;6.53;;
793;SDS011;380;48.738;9.214;2023-02-23T08:30:20;8.07;;;6.22;;
793;SDS011;380;48.738;9.214;2023-02-23T08:32:46;8.80;;;6.03;;
793;SDS011;380;48.738;9.214;2023-02-23T08:35:13;15.68;;;8.25;;
793;SDS011;380;48.738;9.214;2023-02-23T08:37:39;10.85;;;6.68;;
793;SDS011;380;48.738;9.214;2023-02-23T08:40:06;8.20;;;5.93;;
793;SDS011;380;48.738;9.214;2023-02-23T08:42:32;8.60;;;5.97;;
793;SDS011;380;48.738;9.214;2023-02-23T08:44:58;7.78;;;6.00;;
793;SDS011;380;48.738;9.214;2023-02-23T08:47:25;12.60;;;5.78;;
793;SDS011;380;48.738;9.214;2023-02-23T08:49:51;5.72;;;4.93;;
793;SDS011;380;48.738;9.214;2023-02-23T08:52:20;9.88;;;6.22;;
793;SDS011;380;48.738;9.214;2023-02-23T08:54:46;7.97;;;5.43;;
793;SDS011;380;48.738;9.214;2023-02-23T08:57:12;10.45;;;5.47;;
793;SDS011;380;48.738;9.214;2023-02-23T08:59:38;10.35;;;5.40;;
793;SDS011;380;48.738;9.214;2023-02-23T09:02:05;8.90;;;6.05;;
793;SDS011;380;48.738;9.214;2023-02-23T09:04:34;13.15;;;6.22;;
793;SDS011;380;48.738;9.214;2023-02-23T09:07:01;7.03;;;4.93;;
793;SDS011;380;48.738;9.214;2023-02-23T09:09:27;9.32;;;6.65;;
793;SDS011;380;48.738;9.214;2023-02-23T09:11:53;8.05;;;6.20;;
793;SDS011;380;48.738;9.214;2023-02-23T09:14:19;8.90;;;6.32;;
793;SDS011;380;48.738;9.214;2023-02-23T09:16:45;10.18;;;7.18;;
793;SDS011;380;48.738;9.214;2023-02-23T09:19:11;10.73;;;5.68;;
793;SDS011;380;48.738;9.214;2023-02-23T09:21:37;10.98;;;6.55;;
793;SDS011;380;48.738;9.214;2023-02-23T09:24:03;8.77;;;6.53;;
793;SDS011;380;48.738;9.214;2023-02-23T09:26:30;7.65;;;5.78;;
793;SDS011;380;48.738;9.214;2023-02-23T09:28:57;12.45;;;6.30;;
793;SDS011;380;48.738;9.214;2023-02-23T09:31:23;9.95;;;6.20;;
793;SDS011;380;48.738;9.214;2023-02-23T09:33:49;6.32;;;5.13;;
793;SDS011;380;48.738;9.214;2023-02-23T09:36:16;9.75;;;6.03;;
793;SDS011;380;48.738;9.214;2023-02-23T09:38:43;11.05;;;6.07;;
793;SDS011;380;48.738;9.214;2023-02-23T09:43:57;6.50;;;5.13;;
793;SDS011;380;48.738;9.214;2023-02-23T09:49:10;6.40;;;5.13;;
793;SDS011;380;48.738;9.214;2023-02-23T09:51:39;8.43;;;5.70;;
793;SDS011;380;48.738;9.214;2023-02-23T09:54:08;6.63;;;5.20;;
793;SDS011;380;48.738;9.214;2023-02-23T09:56:37;7.28;;;5.55;;
793;SDS011;380;48.738;9.214;2023-02-23T09:59:03;6.50;;;4.22;;
793;SDS011;380;48.738;9.214;2023-02-23T10:06:25;6.30;;;4.85;;
793;SDS011;380;48.738;9.214;2023-02-23T10:09:07;10.18;;;5.88;;
793;SDS011;380;48.738;9.214;2023-02-23T10:14:17;8.07;;;4.60;;
793;SDS011;380;48.738;9.214;2023-02-23T10:16:51;8.68;;;5.95;;
793;SDS011;380;48.738;9.214;2023-02-23T10:19:21;6.28;;;4.75;;
793;SDS011;380;48.738;9.214;2023-02-23T10:21:55;7.90;;;4.55;;
793;SDS011;380;48.738;9.214;2023-02-23T10:24:26;9.95;;;5.45;;
793;SDS011;380;48.738;9.214;2023-02-23T10:26:54;14.57;;;5.65;;
793;SDS011;380;48.738;9.214;2023-02-23T10:31:50;8.05;;;4.43;;
793;SDS011;380;48.738;9.214;2023-02-23T10:34:17;7.60;;;5.25;;
793;SDS011;380;48.738;9.214;2023-02-23T10:36:46;7.53;;;5.30;;
793;SDS011;380;48.738;9.214;2023-02-23T10:39:12;5.72;;;4.45;;
793;SDS011;380;48.738;9.214;2023-02-23T10:41:38;8.00;;;4.43;;
793;SDS011;380;48.738;9.214;2023-02-23T10:44:09;9.40;;;5.60;;
793;SDS011;380;48.738;9.214;2023-02-23T10:46:37;7.05;;;5.25;;
793;SDS011;380;48.738;9.214;2023-02-23T10:49:05;10.70;;;5.28;;
793;SDS011;380;48.738;9.214;2023-02-23T10:51:32;8.50;;;3.97;;
793;SDS011;380;48.738;9.214;2023-02-23T10:54:46;7.20;;;4.40;;
793;SDS011;380;48.738;9.214;2023-02-23T10:56:48;9.55;;;4.85;;
793;SDS011;380;48.738;9.214;2023-02-23T10:59:17;6.45;;;3.58;;
793;SDS011;380;48.738;9.214;2023-02-23T11:01:43;8.18;;;4.32;;
793;SDS011;380;48.738;9.214;2023-02-23T11:06:38;9.95;;;3.47;;
793;SDS011;380;48.738;9.214;2023-02-23T11:09:23;10.48;;;3.60;;
793;SDS011;380;48.738;9.214;2023-02-23T11:11:59;7.80;;;2.35;;
793;SDS011;380;48.738;9.214;2023-02-23T11:14:27;4.13;;;2.95;;
793;SDS011;380;48.738;9.214;2023-02-23T11:16:57;6.65;;;3.55;;
793;SDS011;380;48.738;9.214;2023-02-23T11:19:26;6.07;;;3.05;;
793;SDS011;380;48.738;9.214;2023-02-23T11:24:23;4.55;;;2.75;;
793;SDS011;380;48.738;9.214;2023-02-23T11:26:54;5.07;;;3.28;;
793;SDS011;380;48.738;9.214;2023-02-23T11:31:51;5.13;;;2.15;;
793;SDS011;380;48.738;9.214;2023-02-23T11:34:20;10.55;;;2.83;;
793;SDS011;380;48.738;9.214;2023-02-23T11:36:56;5.40;;;3.72;;
793;SDS011;380;48.738;9.214;2023-02-23T11:39:22;3.65;;;2.38;;
793;SDS011;380;48.738;9.214;2023-02-23T11:42:05;7.97;;;3.13;;
793;SDS011;380;48.738;9.214;2023-02-23T11:44:35;4.55;;;2.88;;
793;SDS011;380;48.738;9.214;2023-02-23T11:47:01;7.07;;;3.05;;
793;SDS011;380;48.738;9.214;2023-02-23T11:49:31;7.70;;;3.50;;
793;SDS011;380;48.738;9.214;2023-02-23T11:52:00;3.60;;;2.88;;
793;SDS011;380;48.738;9.214;2023-02-23T11:54:28;5.60;;;2.65;;
793;SDS011;380;48.738;9.214;2023-02-23T11:56:57;4.70;;;2.92;;
793;SDS011;380;48.738;9.214;2023-02-23T11:59:32;6.53;;;3.03;;
793;SDS011;380;48.738;9.214;2023-02-23T12:02:21;6.13;;;2.40;;
793;SDS011;380;48.738;9.214;2023-02-23T12:04:46;11.77;;;3.67;;
793;SDS011;380;48.738;9.214;2023-02-23T12:10:22;3.25;;;2.30;;
793;SDS011;380;48.738;9.214;2023-02-23T12:15:21;6.10;;;3.83;;
793;SDS011;380;48.738;9.214;2023-02-23T12:17:49;8.23;;;5.47;;
793;SDS011;380;48.738;9.214;2023-02-23T12:20:23;7.57;;;5.13;;
793;SDS011;380;48.738;9.214;2023-02-23T12:22:50;9.57;;;4.45;;
793;SDS011;380;48.738;9.214;2023-02-23T12:27:54;6.18;;;4.22;;
793;SDS011;380;48.738;9.214;2023-02-23T12:30:25;8.63;;;5.32;;
793;SDS011;380;48.738;9.214;2023-02-23T12:38:20;7.28;;;5.18;;
793;SDS011;380;48.738;9.214;2023-02-23T12:40:52;5.80;;;4.80;;
793;SDS011;380;48.738;9.214;2023-02-23T12:43:26;6.07;;;4.97;;
793;SDS011;380;48.738;9.214;2023-02-23T12:46:08;11.38;;;5.22;;
793;SDS011;380;48.738;9.214;2023-02-23T12:48:40;6.65;;;5.00;;
793;SDS011;380;48.738;9.214;2023-02-23T12:53:51;7.13;;;4.63;;
793;SDS011;380;48.738;9.214;2023-02-23T12:56:34;6.75;;;4.10;;
793;SDS011;380;48.738;9.214;2023-02-23T12:59:15;7.53;;;4.47;;
793;SDS011;380;48.738;9.214;2023-02-23T13:01:45;8.07;;;4.95;;
793;SDS011;380;48.738;9.214;2023-02-23T13:04:37;6.43;;;4.65;;
793;SDS011;380;48.738;9.214;2023-02-23T13:17:59;4.35;;;3.88;;
793;SDS011;380;48.738;9.214;2023-02-23T13:20:37;5.18;;;3.83;;
793;SDS011;380;48.738;9.214;2023-02-23T13:31:02;7.32;;;4.43;;
793;SDS011;380;48.738;9.214;2023-02-23T13:33:28;10.05;;;4.18;;
793;SDS011;380;48.738;9.214;2023-02-23T13:36:02;11.50;;;5.50;;
793;SDS011;380;48.738;9.214;2023-02-23T13:41:06;10.05;;;3.50;;
793;SDS011;380;48.738;9.214;2023-02-23T13:43:38;7.22;;;3.67;;
793;SDS011;380;48.738;9.214;2023-02-23T13:48:47;4.88;;;3.67;;
793;SDS011;380;48.738;9.214;2023-02-23T13:56:25;6.95;;;2.95;;
793;SDS011;380;48.738;9.214;2023-02-23T13:58:53;6.18;;;3.00;;
793;SDS011;380;48.738;9.214;2023-02-23T14:01:28;6.82;;;3.25;;
793;SDS011;380;48.738;9.214;2023-02-23T14:03:55;5.88;;;4.00;;
793;SDS011;380;48.738;9.214;2023-02-23T14:06:23;7.75;;;3.58;;
793;SDS011;380;48.738;9.214;2023-02-23T14:08:50;5.88;;;3.67;;
793;SDS011;380;48.738;9.214;2023-02-23T14:14:13;7.47;;;4.28;;
793;SDS011;380;48.738;9.214;2023-02-23T14:16:40;9.38;;;4.35;;
793;SDS011;380;48.738;9.214;2023-02-23T14:21:58;5.32;;;3.83;;
793;SDS011;380;48.738;9.214;2023-02-23T14:24:25;8.07;;;4.15;;
793;SDS011;380;48.738;9.214;2023-02-23T14:29:28;7.32;;;4.93;;
793;SDS011;380;48.738;9.214;2023-02-23T14:34:50;18.95;;;7.70;;
793;SDS011;380;48.738;9.214;2023-02-23T14:37:18;9.55;;;5.25;;
793;SDS011;380;48.738;9.214;2023-02-23T14:39:47;9.30;;;5.25;;
793;SDS011;380;48.738;9.214;2023-02-23T14:42:18;9.63;;;4.57;;
793;SDS011;380;48.738;9.214;2023-02-23T14:44:45;7.55;;;5.43;;
793;SDS011;380;48.738;9.214;2023-02-23T14:47:15;7.53;;;5.32;;
793;SDS011;380;48.738;9.214;2023-02-23T14:49:43;6.40;;;5.03;;
793;SDS011;380;48.738;9.214;2023-02-23T14:57:38;6.40;;;4.75;;
793;SDS011;380;48.738;9.214;2023-02-23T15:00:14;10.55;;;4.40;;
793;SDS011;380;48.738;9.214;2023-02-23T15:05:20;8.00;;;4.05;;
793;SDS011;380;48.738;9.214;2023-02-23T15:07:47;7.85;;;5.25;;
793;SDS011;380;48.738;9.214;2023-02-23T15:10:27;8.73;;;5.30;;
793;SDS011;380;48.738;9.214;2023-02-23T15:12:53;9.70;;;4.53;;
793;SDS011;380;48.738;9.214;2023-02-23T15:15:21;8.30;;;4.88;;
793;SDS011;380;48.738;9.214;2023-02-23T15:17:48;6.53;;;4.32;;
793;SDS011;380;48.738;9.214;2023-02-23T15:20:16;6.57;;;3.92;;
793;SDS011;380;48.738;9.214;2023-02-23T15:22:45;8.73;;;4.00;;
793;SDS011;380;48.738;9.214;2023-02-23T15:25:16;7.15;;;4.05;;
793;SDS011;380;48.738;9.214;2023-02-23T15:27:42;5.07;;;3.58;;
793;SDS011;380;48.738;9.214;2023-02-23T15:30:28;3.95;;;2.83;;
793;SDS011;380;48.738;9.214;2023-02-23T15:33:28;12.57;;;2.78;;
793;SDS011;380;48.738;9.214;2023-02-23T15:36:03;3.80;;;2.55;;
793;SDS011;380;48.738;9.214;2023-02-23T15:38:33;6.35;;;1.88;;
793;SDS011;380;48.738;9.214;2023-02-23T15:41:01;4.07;;;2.53;;
793;SDS011;380;48.738;9.214;2023-02-23T15:43:29;4.50;;;2.40;;
793;SDS011;380;48.738;9.214;2023-02-23T15:46:01;4.43;;;2.22;;
793;SDS011;380;48.738;9.214;2023-02-23T15:48:29;7.18;;;2.70;;
793;SDS011;380;48.738;9.214;2023-02-23T15:51:03;4.28;;;2.38;;
793;SDS011;380;48.738;9.214;2023-02-23T15:53:35;5.15;;;3.30;;
793;SDS011;380;48.738;9.214;2023-02-23T15:56:05;6.03;;;3.45;;
793;SDS011;380;48.738;9.214;2023-02-23T15:58:37;6.05;;;3.85;;
793;SDS011;380;48.738;9.214;2023-02-23T16:01:08;8.75;;;3.55;;
793;SDS011;380;48.738;9.214;2023-02-23T16:03:35;4.95;;;3.72;;
793;SDS011;380;48.738;9.214;2023-02-23T16:06:07;6.43;;;3.13;;
793;SDS011;380;48.738;9.214;2023-02-23T16:08:33;7.35;;;3.40;;
793;SDS011;380;48.738;9.214;2023-02-23T16:13:25;6.13;;;4.38;;
793;SDS011;380;48.738;9.214;2023-02-23T16:15:52;8.13;;;4.15;;
793;SDS011;380;48.738;9.214;2023-02-23T16:18:19;4.70;;;3.03;;
793;SDS011;380;48.738;9.214;2023-02-23T16:20:50;5.03;;;3.40;;
793;SDS011;380;48.738;9.214;2023-02-23T16:23:36;6.00;;;3.78;;
793;SDS011;380;48.738;9.214;2023-02-23T16:26:07;5.13;;;3.58;;
793;SDS011;380;48.738;9.214;2023-02-23T16:28:33;6.97;;;3.97;;
793;SDS011;380;48.738;9.214;2023-02-23T16:31:01;6.18;;;4.55;;
793;SDS011;380;48.738;9.214;2023-02-23T16:33:39;8.27;;;4.80;;
793;SDS011;380;48.738;9.214;2023-02-23T16:38:36;13.10;;;4.95;;
793;SDS011;380;48.738;9.214;2023-02-23T16:41:03;12.48;;;4.15;;
793;SDS011;380;48.738;9.214;2023-02-23T16:43:29;5.97;;;3.70;;
793;SDS011;380;48.738;9.214;2023-02-23T16:45:59;6.80;;;4.40;;
793;SDS011;380;48.738;9.214;2023-02-23T16:48:26;7.40;;;4.53;;
793;SDS011;380;48.738;9.214;2023-02-23T16:50:52;6.78;;;4.95;;
793;SDS011;380;48.738;9.214;2023-02-23T16:53:18;4.68;;;4.05;;
793;SDS011;380;48.738;9.214;2023-02-23T16:55:53;7.82;;;4.88;;
793;SDS011;380;48.738;9.214;2023-02-23T16:58:20;5.70;;;4.25;;
793;SDS011;380;48.738;9.214;2023-02-23T17:00:47;7.07;;;4.20;;
793;SDS011;380;48.738;9.214;2023-02-23T17:03:15;6.50;;;4.53;;
793;SDS011;380;48.738;9.214;2023-02-23T17:05:44;8.10;;;5.60;;
793;SDS011;380;48.738;9.214;2023-02-23T17:08:10;6.10;;;4.53;;
793;SDS011;380;48.738;9.214;2023-02-23T17:10:36;13.10;;;4.90;;
793;SDS011;380;48.738;9.214;2023-02-23T17:13:03;7.60;;;4.07;;
793;SDS011;380;48.738;9.214;2023-02-23T17:15:31;9.15;;;3.78;;
793;SDS011;380;48.738;9.214;2023-02-23T17:17:57;8.57;;;5.07;;
793;SDS011;380;48.738;9.214;2023-02-23T17:20:24;9.88;;;4.55;;
793;SDS011;380;48.738;9.214;2023-02-23T17:22:51;8.07;;;5.57;;
793;SDS011;380;48.738;9.214;2023-02-23T17:25:17;6.40;;;4.93;;
793;SDS011;380;48.738;9.214;2023-02-23T17:27:43;9.07;;;4.72;;
793;SDS011;380;48.738;9.214;2023-02-23T17:30:09;13.60;;;4.93;;
793;SDS011;380;48.738;9.214;2023-02-23T17:32:35;7.57;;;4.97;;
793;SDS011;380;48.738;9.214;2023-02-23T17:35:02;9.20;;;4.50;;
793;SDS011;380;48.738;9.214;2023-02-23T17:37:28;8.00;;;6.30;;
793;SDS011;380;48.738;9.214;2023-02-23T17:39:54;13.18;;;5.40;;
793;SDS011;380;48.738;9.214;2023-02-23T17:42:20;8.65;;;4.82;;
793;SDS011;380;48.738;9.214;2023-02-23T17:44:48;7.65;;;4.68;;
793;SDS011;380;48.738;9.214;2023-02-23T17:47:14;5.28;;;4.43;;
793;SDS011;380;48.738;9.214;2023-02-23T17:49:40;5.20;;;4.22;;
793;SDS011;380;48.738;9.214;2023-02-23T17:52:06;11.85;;;5.05;;
793;SDS011;380;48.738;9.214;2023-02-23T17:54:32;6.15;;;4.28;;
793;SDS011;380;48.738;9.214;2023-02-23T17:56:58;9.48;;;4.45;;
793;SDS011;380;48.738;9.214;2023-02-23T17:59:24;8.77;;;4.50;;
793;SDS011;380;48.738;9.214;2023-02-23T18:01:50;12.27;;;4.68;;
793;SDS011;380;48.738;9.214;2023-02-23T18:04:16;8.23;;;4.95;;
793;SDS011;380;48.738;9.214;2023-02-23T18:06:42;9.05;;;4.47;;